createdAt,value
2022-08-27T00:00:58.345Z,22.51
2022-08-27T00:06:23.489Z,22.53
2022-08-27T00:11:47.518Z,22.55
2022-08-27T00:17:13.572Z,22.59
2022-08-27T00:22:39.104Z,22.46
2022-08-27T00:28:03.180Z,22.42
2022-08-27T00:33:28.664Z,22.36
2022-08-27T00:38:54.059Z,22.32
2022-08-27T00:44:23.280Z,22.32
2022-08-27T00:49:50.385Z,22.25
2022-08-27T00:55:18.079Z,22.21
2022-08-27T01:00:42.341Z,22.16
2022-08-27T01:06:11.416Z,22.15
2022-08-27T01:11:40.190Z,22.12
2022-08-27T01:17:05.383Z,22.10
2022-08-27T01:22:35.273Z,22.04
2022-08-27T01:28:02.944Z,22.02
2022-08-27T01:33:26.712Z,22.03
2022-08-27T01:38:51.610Z,21.99
2022-08-27T01:44:21.033Z,21.93
2022-08-27T01:49:45.600Z,21.90
2022-08-27T01:55:13.033Z,21.90
2022-08-27T02:00:40.436Z,21.86
2022-08-27T02:06:06.653Z,21.84
2022-08-27T02:11:31.116Z,21.83
2022-08-27T02:16:57.486Z,21.76
2022-08-27T02:22:24.489Z,21.77
2022-08-27T02:27:50.734Z,21.74
2022-08-27T02:33:17.077Z,21.72
2022-08-27T02:38:42.088Z,21.68
2022-08-27T02:44:10.370Z,21.67
2022-08-27T02:49:35.882Z,21.65
2022-08-27T02:55:00.385Z,21.60
2022-08-27T03:00:25.746Z,21.61
2022-08-27T03:05:53.020Z,21.63
2022-08-27T03:11:18.914Z,21.61
2022-08-27T03:16:43.056Z,21.59
2022-08-27T03:22:08.890Z,21.56
2022-08-27T03:27:33.022Z,21.58
2022-08-27T03:32:57.403Z,21.58
2022-08-27T03:38:23.073Z,21.63
2022-08-27T03:43:49.800Z,21.68
2022-08-27T03:49:14.043Z,21.73
2022-08-27T03:54:40.322Z,21.76
2022-08-27T04:00:06.150Z,21.82
2022-08-27T04:05:37.286Z,21.93
2022-08-27T04:11:06.061Z,21.98
2022-08-27T04:16:31.988Z,22.04
2022-08-27T04:21:59.560Z,22.04
2022-08-27T04:27:26.547Z,22.14
2022-08-27T04:32:50.765Z,22.13
2022-08-27T04:38:15.448Z,22.22
2022-08-27T04:43:41.085Z,22.34
2022-08-27T04:49:09.002Z,22.30
2022-08-27T04:54:35.292Z,22.38
2022-08-27T05:00:01.215Z,22.53
2022-08-27T05:05:25.249Z,22.66
2022-08-27T05:10:50.923Z,22.86
2022-08-27T05:16:18.355Z,23.21
2022-08-27T05:21:45.698Z,23.55
2022-08-27T05:27:09.979Z,23.92
2022-08-27T05:32:39.747Z,24.08
2022-08-27T05:38:03.945Z,24.20
2022-08-27T05:43:28.015Z,24.67
2022-08-27T05:48:57.148Z,25.04
2022-08-27T05:54:21.102Z,25.24
2022-08-27T06:00:02.817Z,25.71
2022-08-27T06:05:37.988Z,26.35
2022-08-27T06:11:03.480Z,27.84
2022-08-27T06:16:28.135Z,29.35
2022-08-27T06:22:01.262Z,30.27
2022-08-27T06:27:35.022Z,31.41
2022-08-27T06:32:59.215Z,31.97
2022-08-27T06:38:25.825Z,32.59
2022-08-27T06:43:50.117Z,32.73
2022-08-27T06:49:14.732Z,33.06
2022-08-27T06:54:40.606Z,33.82
2022-08-27T07:00:04.931Z,34.34
2022-08-27T07:05:28.819Z,34.26
2022-08-27T07:10:58.268Z,33.40
2022-08-27T07:16:24.133Z,33.84
2022-08-27T07:21:48.600Z,34.39
2022-08-27T07:27:17.049Z,34.31
2022-08-27T07:32:41.100Z,34.45
2022-08-27T07:38:04.759Z,34.53
2022-08-27T07:43:47.735Z,34.22
2022-08-27T07:49:12.058Z,34.41
2022-08-27T07:54:35.839Z,34.66
2022-08-27T08:00:01.519Z,34.77
2022-08-27T08:05:25.012Z,35.15
2022-08-27T08:10:49.090Z,35.92
2022-08-27T08:16:14.935Z,35.31
2022-08-27T08:21:38.850Z,35.43
2022-08-27T08:27:06.851Z,35.14
2022-08-27T08:32:33.630Z,36.02
2022-08-27T08:37:58.651Z,34.84
2022-08-27T08:43:28.286Z,35.46
2022-08-27T08:48:56.115Z,36.25
2022-08-27T08:54:21.759Z,35.64
2022-08-27T08:59:48.779Z,35.73
2022-08-27T09:05:14.805Z,35.28
2022-08-27T09:10:42.880Z,36.00
2022-08-27T09:16:07.765Z,36.51
2022-08-27T09:21:37.495Z,35.86
2022-08-27T09:27:02.366Z,35.57
2022-08-27T09:32:27.692Z,35.56
2022-08-27T09:37:56.028Z,35.59
2022-08-27T09:43:22.375Z,35.50
2022-08-27T09:48:46.647Z,35.46
2022-08-27T09:54:25.008Z,35.13
2022-08-27T09:59:52.590Z,34.29
2022-08-27T10:05:24.504Z,34.90
2022-08-27T10:10:53.951Z,35.34
2022-08-27T10:16:27.487Z,35.48
2022-08-27T10:21:58.288Z,35.25
2022-08-27T10:27:28.716Z,33.44
2022-08-27T10:32:58.777Z,33.55
2022-08-27T10:38:32.881Z,33.36
2022-08-27T10:44:20.908Z,34.06
2022-08-27T10:49:52.586Z,32.59
2022-08-27T10:55:21.037Z,33.17
2022-08-27T11:00:49.994Z,32.44
2022-08-27T11:06:19.466Z,32.00
2022-08-27T11:17:33.762Z,33.19
2022-08-27T11:23:02.216Z,34.07
2022-08-27T11:28:32.256Z,34.17
2022-08-27T11:34:01.181Z,34.05
2022-08-27T11:39:35.607Z,34.12
2022-08-27T11:45:04.815Z,34.05
2022-08-27T11:50:32.033Z,34.15
2022-08-27T11:55:58.460Z,34.39
2022-08-27T12:01:27.033Z,34.59
2022-08-27T12:06:52.504Z,34.57
2022-08-27T12:12:23.052Z,34.20
2022-08-27T12:18:00.117Z,33.91
2022-08-27T12:23:42.416Z,33.94
2022-08-27T12:29:27.711Z,33.93
2022-08-27T12:35:00.182Z,33.12
2022-08-27T12:40:29.439Z,33.23
2022-08-27T12:45:58.491Z,32.80
2022-08-27T12:51:24.753Z,32.97
2022-08-27T12:56:56.210Z,33.14
2022-08-27T13:02:31.253Z,33.09
2022-08-27T13:07:55.563Z,33.23
2022-08-27T13:13:20.962Z,33.13
2022-08-27T13:18:49.599Z,33.19
2022-08-27T13:24:13.285Z,33.02
2022-08-27T13:29:37.236Z,32.92
2022-08-27T13:35:03.108Z,32.86
2022-08-27T13:40:28.990Z,32.87
2022-08-27T13:45:59.897Z,32.72
2022-08-27T13:51:28.023Z,32.52
2022-08-27T13:57:03.664Z,32.10
2022-08-27T14:02:29.592Z,31.88
2022-08-27T14:07:56.303Z,31.98
2022-08-27T14:13:22.958Z,31.93
2022-08-27T14:19:01.464Z,31.77
2022-08-27T14:24:27.578Z,31.46
2022-08-27T14:29:51.920Z,31.42
2022-08-27T14:35:16.513Z,31.45
2022-08-27T14:40:54.586Z,31.46
2022-08-27T14:46:21.451Z,31.44
2022-08-27T14:51:47.118Z,31.50
2022-08-27T14:57:12.110Z,31.55
2022-08-27T15:02:36.644Z,31.47
2022-08-27T15:08:00.732Z,31.44
2022-08-27T15:13:25.816Z,31.38
2022-08-27T15:18:53.667Z,31.16
2022-08-27T15:24:26.066Z,30.77
2022-08-27T15:29:53.412Z,30.51
2022-08-27T15:35:19.603Z,30.32
2022-08-27T15:40:43.750Z,30.18
2022-08-27T15:46:10.403Z,30.09
2022-08-27T15:51:35.242Z,29.92
2022-08-27T15:57:00.112Z,29.84
2022-08-27T16:02:25.940Z,29.40
2022-08-27T16:07:51.918Z,29.30
2022-08-27T16:13:16.756Z,29.28
2022-08-27T16:18:43.459Z,29.24
2022-08-27T16:24:09.280Z,29.16
2022-08-27T16:29:34.822Z,28.83
2022-08-27T16:35:00.610Z,28.88
2022-08-27T16:40:51.459Z,28.90
2022-08-27T16:46:15.688Z,28.90
2022-08-27T16:51:43.725Z,28.53
2022-08-27T16:57:07.639Z,28.55
2022-08-27T17:02:35.026Z,28.53
2022-08-27T17:08:00.554Z,28.38
2022-08-27T17:13:28.354Z,28.30
2022-08-27T17:18:52.858Z,28.22
2022-08-27T17:24:18.649Z,28.25
2022-08-27T17:29:42.755Z,28.24
2022-08-27T17:35:07.999Z,28.06
2022-08-27T17:40:34.231Z,28.06
2022-08-27T17:45:59.298Z,27.93
2022-08-27T17:51:23.606Z,27.86
2022-08-27T17:56:49.154Z,27.89
2022-08-27T18:02:16.356Z,27.95
2022-08-27T18:07:40.329Z,28.09
2022-08-27T18:13:05.857Z,28.20
2022-08-27T18:18:29.431Z,28.22
2022-08-27T18:23:53.406Z,28.28
2022-08-27T18:29:18.985Z,28.27
2022-08-27T18:34:42.975Z,28.22
2022-08-27T18:40:08.501Z,28.17
2022-08-27T18:45:36.074Z,28.06
2022-08-27T18:51:02.363Z,28.02
2022-08-27T18:56:26.374Z,28.00
2022-08-27T19:01:52.268Z,27.76
2022-08-27T19:07:19.412Z,27.62
2022-08-27T19:12:46.917Z,27.56
2022-08-27T19:18:12.693Z,27.46
2022-08-27T19:23:39.417Z,27.37
2022-08-27T19:29:05.635Z,27.16
2022-08-27T19:34:31.173Z,27.11
2022-08-27T19:39:56.482Z,27.14
2022-08-27T19:45:24.348Z,27.09
2022-08-27T19:50:50.961Z,27.09
2022-08-27T19:56:15.244Z,27.09
2022-08-27T20:01:43.332Z,27.04
2022-08-27T20:07:08.968Z,27.02
2022-08-27T20:12:33.082Z,27.00
2022-08-27T20:17:59.302Z,26.99
2022-08-27T20:23:25.841Z,26.98
2022-08-27T20:28:51.362Z,26.93
2022-08-27T20:34:15.592Z,26.86
2022-08-27T20:39:41.290Z,26.79
2022-08-27T20:45:09.789Z,26.66
2022-08-27T20:50:35.875Z,26.56
2022-08-27T20:56:03.037Z,26.45
2022-08-27T21:01:27.436Z,26.32
2022-08-27T21:06:52.853Z,26.26
2022-08-27T21:12:22.742Z,26.20
2022-08-27T21:17:46.858Z,26.15
2022-08-27T21:23:10.666Z,26.11
2022-08-27T21:28:35.776Z,26.04
2022-08-27T21:33:59.653Z,26.00
2022-08-27T21:39:24.143Z,25.94
2022-08-27T21:44:49.497Z,25.85
2022-08-27T21:50:13.765Z,25.68
2022-08-27T21:55:37.796Z,25.63
2022-08-27T22:01:05.502Z,25.54
2022-08-27T22:06:30.594Z,25.53
2022-08-27T22:11:54.228Z,25.49
2022-08-27T22:17:21.793Z,25.47
2022-08-27T22:22:46.121Z,25.29
2022-08-27T22:28:10.085Z,25.28
2022-08-27T22:33:35.122Z,25.27
2022-08-27T22:39:03.401Z,25.22
2022-08-27T22:44:29.394Z,25.20
2022-08-27T22:49:54.604Z,25.21
2022-08-27T22:55:24.282Z,25.18
2022-08-27T23:00:52.203Z,25.08
2022-08-27T23:06:17.860Z,24.70
2022-08-27T23:11:42.102Z,24.81
2022-08-27T23:17:05.962Z,24.81
2022-08-27T23:22:31.526Z,24.81
2022-08-27T23:27:57.394Z,24.49
2022-08-27T23:33:24.033Z,24.24
2022-08-27T23:38:51.111Z,24.17
2022-08-27T23:44:16.115Z,24.32
2022-08-27T23:49:40.163Z,24.45
2022-08-27T23:55:06.105Z,24.55
